sensor_id;sensor_type;location;lat;lon;timestamp;P1;durP1;ratioP1;P2;durP2;ratioP2
8927;SDS011;4499;48.304;11.902;2022-09-16T00:01:08;12.97;;;11.17;;
8927;SDS011;4499;48.304;11.902;2022-09-16T00:03:38;13.67;;;11.20;;
8927;SDS011;4499;48.304;11.902;2022-09-16T00:06:11;14.70;;;11.40;;
8927;SDS011;4499;48.304;11.902;2022-09-16T00:08:45;16.07;;;11.37;;
8927;SDS011;4499;48.304;11.902;2022-09-16T00:11:13;15.77;;;11.67;;
8927;SDS011;4499;48.304;11.902;2022-09-16T00:13:42;13.63;;;11.53;;
8927;SDS011;4499;48.304;11.902;2022-09-16T00:16:11;12.07;;;10.87;;
8927;SDS011;4499;48.304;11.902;2022-09-16T00:18:42;16.73;;;12.17;;
8927;SDS011;4499;48.304;11.902;2022-09-16T00:21:12;12.20;;;11.00;;
8927;SDS011;4499;48.304;11.902;2022-09-16T00:23:40;12.40;;;10.63;;
8927;SDS011;4499;48.304;11.902;2022-09-16T00:26:08;12.13;;;10.83;;
8927;SDS011;4499;48.304;11.902;2022-09-16T00:28:36;12.83;;;10.77;;
8927;SDS011;4499;48.304;11.902;2022-09-16T00:31:04;13.53;;;10.70;;
8927;SDS011;4499;48.304;11.902;2022-09-16T00:33:32;12.30;;;10.53;;
8927;SDS011;4499;48.304;11.902;2022-09-16T00:36:06;12.87;;;9.97;;
8927;SDS011;4499;48.304;11.902;2022-09-16T00:38:38;13.47;;;10.60;;
8927;SDS011;4499;48.304;11.902;2022-09-16T00:41:07;13.00;;;10.70;;
8927;SDS011;4499;48.304;11.902;2022-09-16T00:43:51;12.43;;;10.23;;
8927;SDS011;4499;48.304;11.902;2022-09-16T00:46:23;15.50;;;10.60;;
8927;SDS011;4499;48.304;11.902;2022-09-16T00:48:57;13.80;;;10.40;;
8927;SDS011;4499;48.304;11.902;2022-09-16T00:51:28;10.80;;;9.70;;
8927;SDS011;4499;48.304;11.902;2022-09-16T00:53:57;10.63;;;9.23;;
8927;SDS011;4499;48.304;11.902;2022-09-16T00:56:28;12.43;;;9.73;;
8927;SDS011;4499;48.304;11.902;2022-09-16T00:59:04;9.83;;;8.83;;
8927;SDS011;4499;48.304;11.902;2022-09-16T01:01:36;13.43;;;9.27;;
8927;SDS011;4499;48.304;11.902;2022-09-16T01:04:07;10.80;;;9.70;;
8927;SDS011;4499;48.304;11.902;2022-09-16T01:06:38;11.70;;;9.23;;
8927;SDS011;4499;48.304;11.902;2022-09-16T01:09:08;11.10;;;9.43;;
8927;SDS011;4499;48.304;11.902;2022-09-16T01:11:36;13.00;;;9.80;;
8927;SDS011;4499;48.304;11.902;2022-09-16T01:14:04;10.57;;;9.47;;
8927;SDS011;4499;48.304;11.902;2022-09-16T01:16:52;10.67;;;9.33;;
8927;SDS011;4499;48.304;11.902;2022-09-16T01:19:31;11.07;;;8.97;;
8927;SDS011;4499;48.304;11.902;2022-09-16T01:22:11;11.37;;;9.33;;
8927;SDS011;4499;48.304;11.902;2022-09-16T01:24:58;11.80;;;8.53;;
8927;SDS011;4499;48.304;11.902;2022-09-16T01:27:38;12.47;;;9.27;;
8927;SDS011;4499;48.304;11.902;2022-09-16T01:30:41;10.30;;;8.90;;
8927;SDS011;4499;48.304;11.902;2022-09-16T01:33:21;10.93;;;9.37;;
8927;SDS011;4499;48.304;11.902;2022-09-16T01:36:00;12.00;;;9.40;;
8927;SDS011;4499;48.304;11.902;2022-09-16T01:41:26;10.13;;;8.70;;
8927;SDS011;4499;48.304;11.902;2022-09-16T01:44:02;10.87;;;8.53;;
8927;SDS011;4499;48.304;11.902;2022-09-16T01:46:38;10.93;;;8.43;;
8927;SDS011;4499;48.304;11.902;2022-09-16T01:49:14;12.67;;;8.40;;
8927;SDS011;4499;48.304;11.902;2022-09-16T01:51:49;13.37;;;8.10;;
8927;SDS011;4499;48.304;11.902;2022-09-16T01:54:22;8.90;;;8.00;;
8927;SDS011;4499;48.304;11.902;2022-09-16T01:56:56;11.47;;;8.60;;
8927;SDS011;4499;48.304;11.902;2022-09-16T01:59:33;11.73;;;8.57;;
8927;SDS011;4499;48.304;11.902;2022-09-16T02:02:09;10.60;;;9.07;;
8927;SDS011;4499;48.304;11.902;2022-09-16T02:04:47;12.60;;;8.90;;
8927;SDS011;4499;48.304;11.902;2022-09-16T02:07:18;13.70;;;9.97;;
8927;SDS011;4499;48.304;11.902;2022-09-16T02:09:50;10.57;;;9.40;;
8927;SDS011;4499;48.304;11.902;2022-09-16T02:12:24;11.17;;;8.93;;
8927;SDS011;4499;48.304;11.902;2022-09-16T02:14:56;10.77;;;9.67;;
8927;SDS011;4499;48.304;11.902;2022-09-16T02:17:34;11.83;;;9.20;;
8927;SDS011;4499;48.304;11.902;2022-09-16T02:20:08;11.07;;;9.97;;
8927;SDS011;4499;48.304;11.902;2022-09-16T02:22:40;11.17;;;9.93;;
8927;SDS011;4499;48.304;11.902;2022-09-16T02:25:11;14.50;;;10.23;;
8927;SDS011;4499;48.304;11.902;2022-09-16T02:27:40;13.90;;;9.70;;
8927;SDS011;4499;48.304;11.902;2022-09-16T02:30:13;12.47;;;10.10;;
8927;SDS011;4499;48.304;11.902;2022-09-16T02:32:46;14.30;;;10.23;;
8927;SDS011;4499;48.304;11.902;2022-09-16T02:35:17;10.93;;;9.73;;
8927;SDS011;4499;48.304;11.902;2022-09-16T02:37:48;10.70;;;9.60;;
8927;SDS011;4499;48.304;11.902;2022-09-16T02:40:21;11.00;;;9.90;;
8927;SDS011;4499;48.304;11.902;2022-09-16T02:42:55;11.73;;;9.90;;
8927;SDS011;4499;48.304;11.902;2022-09-16T02:45:24;10.30;;;9.20;;
8927;SDS011;4499;48.304;11.902;2022-09-16T02:48:03;12.37;;;9.90;;
8927;SDS011;4499;48.304;11.902;2022-09-16T02:50:39;15.10;;;9.67;;
8927;SDS011;4499;48.304;11.902;2022-09-16T02:53:13;12.10;;;9.47;;
8927;SDS011;4499;48.304;11.902;2022-09-16T02:55:55;10.63;;;8.60;;
8927;SDS011;4499;48.304;11.902;2022-09-16T02:58:28;10.47;;;9.00;;
8927;SDS011;4499;48.304;11.902;2022-09-16T03:00:56;11.27;;;8.77;;
8927;SDS011;4499;48.304;11.902;2022-09-16T03:03:26;10.27;;;8.33;;
8927;SDS011;4499;48.304;11.902;2022-09-16T03:06:12;13.87;;;8.70;;
8927;SDS011;4499;48.304;11.902;2022-09-16T03:08:43;11.10;;;8.67;;
8927;SDS011;4499;48.304;11.902;2022-09-16T03:11:17;9.40;;;8.40;;
8927;SDS011;4499;48.304;11.902;2022-09-16T03:14:03;10.60;;;8.43;;
8927;SDS011;4499;48.304;11.902;2022-09-16T03:16:46;12.37;;;8.77;;
8927;SDS011;4499;48.304;11.902;2022-09-16T03:19:25;10.60;;;8.13;;
8927;SDS011;4499;48.304;11.902;2022-09-16T03:22:04;10.53;;;8.17;;
8927;SDS011;4499;48.304;11.902;2022-09-16T03:24:41;10.53;;;8.73;;
8927;SDS011;4499;48.304;11.902;2022-09-16T03:27:24;14.10;;;8.80;;
8927;SDS011;4499;48.304;11.902;2022-09-16T03:29:59;11.37;;;8.30;;
8927;SDS011;4499;48.304;11.902;2022-09-16T03:32:31;10.63;;;8.83;;
8927;SDS011;4499;48.304;11.902;2022-09-16T03:35:07;10.07;;;8.30;;
8927;SDS011;4499;48.304;11.902;2022-09-16T03:37:38;11.97;;;8.30;;
8927;SDS011;4499;48.304;11.902;2022-09-16T03:40:08;10.60;;;8.13;;
8927;SDS011;4499;48.304;11.902;2022-09-16T03:42:39;9.17;;;7.47;;
8927;SDS011;4499;48.304;11.902;2022-09-16T03:45:09;12.73;;;7.83;;
8927;SDS011;4499;48.304;11.902;2022-09-16T03:47:42;8.90;;;7.90;;
8927;SDS011;4499;48.304;11.902;2022-09-16T03:50:12;12.70;;;7.70;;
8927;SDS011;4499;48.304;11.902;2022-09-16T03:52:40;10.83;;;7.87;;
8927;SDS011;4499;48.304;11.902;2022-09-16T03:55:08;10.60;;;7.87;;
8927;SDS011;4499;48.304;11.902;2022-09-16T03:57:37;12.77;;;7.30;;
8927;SDS011;4499;48.304;11.902;2022-09-16T04:00:06;8.80;;;7.73;;
8927;SDS011;4499;48.304;11.902;2022-09-16T04:02:35;9.37;;;7.80;;
8927;SDS011;4499;48.304;11.902;2022-09-16T04:05:04;10.53;;;7.90;;
8927;SDS011;4499;48.304;11.902;2022-09-16T04:07:34;11.53;;;8.50;;
8927;SDS011;4499;48.304;11.902;2022-09-16T04:10:03;12.33;;;7.83;;
8927;SDS011;4499;48.304;11.902;2022-09-16T04:12:32;9.33;;;7.97;;
8927;SDS011;4499;48.304;11.902;2022-09-16T04:15:00;12.13;;;7.50;;
8927;SDS011;4499;48.304;11.902;2022-09-16T04:17:29;8.33;;;7.40;;
8927;SDS011;4499;48.304;11.902;2022-09-16T04:19:57;12.93;;;7.90;;
8927;SDS011;4499;48.304;11.902;2022-09-16T04:22:26;10.97;;;7.93;;
8927;SDS011;4499;48.304;11.902;2022-09-16T04:24:57;10.23;;;8.53;;
8927;SDS011;4499;48.304;11.902;2022-09-16T04:27:25;9.57;;;7.77;;
8927;SDS011;4499;48.304;11.902;2022-09-16T04:29:53;8.77;;;7.87;;
8927;SDS011;4499;48.304;11.902;2022-09-16T04:32:21;9.80;;;8.50;;
8927;SDS011;4499;48.304;11.902;2022-09-16T04:34:49;11.63;;;8.47;;
8927;SDS011;4499;48.304;11.902;2022-09-16T04:37:17;10.53;;;8.47;;
8927;SDS011;4499;48.304;11.902;2022-09-16T04:39:45;12.13;;;8.90;;
8927;SDS011;4499;48.304;11.902;2022-09-16T04:42:15;10.10;;;9.10;;
8927;SDS011;4499;48.304;11.902;2022-09-16T04:44:43;10.73;;;8.80;;
8927;SDS011;4499;48.304;11.902;2022-09-16T04:47:11;11.23;;;8.77;;
8927;SDS011;4499;48.304;11.902;2022-09-16T04:49:39;11.73;;;8.77;;
8927;SDS011;4499;48.304;11.902;2022-09-16T04:52:08;15.53;;;10.67;;
8927;SDS011;4499;48.304;11.902;2022-09-16T04:54:36;11.37;;;10.10;;
8927;SDS011;4499;48.304;11.902;2022-09-16T04:57:05;15.70;;;10.17;;
8927;SDS011;4499;48.304;11.902;2022-09-16T04:59:35;12.90;;;10.10;;
8927;SDS011;4499;48.304;11.902;2022-09-16T05:02:03;13.30;;;9.40;;
8927;SDS011;4499;48.304;11.902;2022-09-16T05:04:31;11.83;;;9.73;;
8927;SDS011;4499;48.304;11.902;2022-09-16T05:06:59;13.13;;;9.97;;
8927;SDS011;4499;48.304;11.902;2022-09-16T05:09:27;11.17;;;9.63;;
8927;SDS011;4499;48.304;11.902;2022-09-16T05:11:55;12.10;;;10.87;;
8927;SDS011;4499;48.304;11.902;2022-09-16T05:14:23;13.10;;;11.30;;
8927;SDS011;4499;48.304;11.902;2022-09-16T05:16:53;15.87;;;11.73;;
8927;SDS011;4499;48.304;11.902;2022-09-16T05:19:21;14.87;;;11.30;;
8927;SDS011;4499;48.304;11.902;2022-09-16T05:21:50;13.53;;;11.30;;
8927;SDS011;4499;48.304;11.902;2022-09-16T05:24:18;13.97;;;12.10;;
8927;SDS011;4499;48.304;11.902;2022-09-16T05:26:46;14.60;;;12.00;;
8927;SDS011;4499;48.304;11.902;2022-09-16T05:29:14;15.33;;;12.63;;
8927;SDS011;4499;48.304;11.902;2022-09-16T05:31:43;13.20;;;11.73;;
8927;SDS011;4499;48.304;11.902;2022-09-16T05:34:14;13.60;;;11.70;;
8927;SDS011;4499;48.304;11.902;2022-09-16T05:36:44;15.63;;;11.97;;
8927;SDS011;4499;48.304;11.902;2022-09-16T05:39:14;13.37;;;11.97;;
8927;SDS011;4499;48.304;11.902;2022-09-16T05:41:51;16.97;;;11.97;;
8927;SDS011;4499;48.304;11.902;2022-09-16T05:44:21;13.33;;;11.87;;
8927;SDS011;4499;48.304;11.902;2022-09-16T05:46:52;14.70;;;11.87;;
8927;SDS011;4499;48.304;11.902;2022-09-16T05:49:21;13.90;;;12.00;;
8927;SDS011;4499;48.304;11.902;2022-09-16T05:51:50;18.37;;;12.70;;
8927;SDS011;4499;48.304;11.902;2022-09-16T05:54:18;17.90;;;11.93;;
8927;SDS011;4499;48.304;11.902;2022-09-16T05:56:49;14.30;;;12.23;;
8927;SDS011;4499;48.304;11.902;2022-09-16T05:59:18;15.30;;;12.47;;
8927;SDS011;4499;48.304;11.902;2022-09-16T06:01:46;14.13;;;11.33;;
8927;SDS011;4499;48.304;11.902;2022-09-16T06:04:14;14.60;;;12.13;;
8927;SDS011;4499;48.304;11.902;2022-09-16T06:06:44;13.87;;;12.13;;
8927;SDS011;4499;48.304;11.902;2022-09-16T06:09:14;13.27;;;11.87;;
8927;SDS011;4499;48.304;11.902;2022-09-16T06:11:45;16.23;;;11.80;;
8927;SDS011;4499;48.304;11.902;2022-09-16T06:14:14;14.40;;;11.47;;
8927;SDS011;4499;48.304;11.902;2022-09-16T06:16:43;15.27;;;10.97;;
8927;SDS011;4499;48.304;11.902;2022-09-16T06:19:12;17.67;;;11.23;;
8927;SDS011;4499;48.304;11.902;2022-09-16T06:21:43;14.40;;;11.10;;
8927;SDS011;4499;48.304;11.902;2022-09-16T06:24:13;12.97;;;11.00;;
8927;SDS011;4499;48.304;11.902;2022-09-16T06:26:43;13.67;;;10.50;;
8927;SDS011;4499;48.304;11.902;2022-09-16T06:29:12;14.03;;;11.13;;
8927;SDS011;4499;48.304;11.902;2022-09-16T06:31:41;15.03;;;11.00;;
8927;SDS011;4499;48.304;11.902;2022-09-16T06:34:11;14.97;;;10.67;;
8927;SDS011;4499;48.304;11.902;2022-09-16T06:36:41;12.73;;;11.17;;
8927;SDS011;4499;48.304;11.902;2022-09-16T06:39:11;12.53;;;10.07;;
8927;SDS011;4499;48.304;11.902;2022-09-16T06:41:40;12.97;;;10.60;;
8927;SDS011;4499;48.304;11.902;2022-09-16T06:44:08;13.83;;;10.10;;
8927;SDS011;4499;48.304;11.902;2022-09-16T06:46:37;11.97;;;9.80;;
8927;SDS011;4499;48.304;11.902;2022-09-16T06:49:05;12.77;;;9.57;;
8927;SDS011;4499;48.304;11.902;2022-09-16T06:51:33;12.67;;;10.00;;
8927;SDS011;4499;48.304;11.902;2022-09-16T06:54:04;10.23;;;9.17;;
8927;SDS011;4499;48.304;11.902;2022-09-16T06:56:33;11.57;;;9.17;;
8927;SDS011;4499;48.304;11.902;2022-09-16T06:59:04;12.63;;;9.47;;
8927;SDS011;4499;48.304;11.902;2022-09-16T07:01:33;11.43;;;8.80;;
8927;SDS011;4499;48.304;11.902;2022-09-16T07:04:03;11.53;;;9.40;;
8927;SDS011;4499;48.304;11.902;2022-09-16T07:06:33;12.67;;;9.67;;
8927;SDS011;4499;48.304;11.902;2022-09-16T07:09:23;12.30;;;9.37;;
8927;SDS011;4499;48.304;11.902;2022-09-16T07:11:51;13.17;;;10.20;;
8927;SDS011;4499;48.304;11.902;2022-09-16T07:14:22;12.20;;;9.83;;
8927;SDS011;4499;48.304;11.902;2022-09-16T07:16:50;12.50;;;10.57;;
8927;SDS011;4499;48.304;11.902;2022-09-16T07:19:18;12.37;;;10.23;;
8927;SDS011;4499;48.304;11.902;2022-09-16T07:21:47;13.23;;;9.47;;
8927;SDS011;4499;48.304;11.902;2022-09-16T07:24:15;12.20;;;9.33;;
8927;SDS011;4499;48.304;11.902;2022-09-16T07:26:44;11.10;;;9.77;;
8927;SDS011;4499;48.304;11.902;2022-09-16T07:29:14;15.47;;;9.80;;
8927;SDS011;4499;48.304;11.902;2022-09-16T07:31:43;11.90;;;10.37;;
8927;SDS011;4499;48.304;11.902;2022-09-16T07:34:11;17.30;;;10.60;;
8927;SDS011;4499;48.304;11.902;2022-09-16T07:36:40;12.90;;;9.90;;
8927;SDS011;4499;48.304;11.902;2022-09-16T07:39:10;11.20;;;10.00;;
8927;SDS011;4499;48.304;11.902;2022-09-16T07:41:39;12.17;;;10.23;;
8927;SDS011;4499;48.304;11.902;2022-09-16T07:44:10;11.40;;;9.67;;
8927;SDS011;4499;48.304;11.902;2022-09-16T07:46:39;12.07;;;9.63;;
8927;SDS011;4499;48.304;11.902;2022-09-16T07:49:08;11.53;;;9.97;;
8927;SDS011;4499;48.304;11.902;2022-09-16T07:51:38;13.43;;;9.80;;
8927;SDS011;4499;48.304;11.902;2022-09-16T07:54:07;13.97;;;9.60;;
8927;SDS011;4499;48.304;11.902;2022-09-16T07:56:37;12.80;;;9.27;;
8927;SDS011;4499;48.304;11.902;2022-09-16T07:59:07;12.67;;;9.63;;
8927;SDS011;4499;48.304;11.902;2022-09-16T08:01:44;10.30;;;8.90;;
8927;SDS011;4499;48.304;11.902;2022-09-16T08:04:12;11.40;;;9.13;;
8927;SDS011;4499;48.304;11.902;2022-09-16T08:06:40;10.40;;;9.07;;
8927;SDS011;4499;48.304;11.902;2022-09-16T08:09:08;10.73;;;9.17;;
8927;SDS011;4499;48.304;11.902;2022-09-16T08:11:56;10.27;;;8.90;;
8927;SDS011;4499;48.304;11.902;2022-09-16T08:14:27;10.67;;;8.40;;
8927;SDS011;4499;48.304;11.902;2022-09-16T08:16:55;11.80;;;9.50;;
8927;SDS011;4499;48.304;11.902;2022-09-16T08:19:24;9.73;;;8.70;;
8927;SDS011;4499;48.304;11.902;2022-09-16T08:21:52;11.30;;;8.70;;
8927;SDS011;4499;48.304;11.902;2022-09-16T08:24:20;10.90;;;8.20;;
8927;SDS011;4499;48.304;11.902;2022-09-16T08:26:48;10.83;;;8.23;;
8927;SDS011;4499;48.304;11.902;2022-09-16T08:29:16;12.33;;;8.60;;
8927;SDS011;4499;48.304;11.902;2022-09-16T08:31:45;9.80;;;8.40;;
8927;SDS011;4499;48.304;11.902;2022-09-16T08:34:14;13.07;;;8.77;;
8927;SDS011;4499;48.304;11.902;2022-09-16T08:36:42;9.50;;;8.50;;
8927;SDS011;4499;48.304;11.902;2022-09-16T08:39:11;10.83;;;8.90;;
8927;SDS011;4499;48.304;11.902;2022-09-16T08:41:44;12.17;;;8.53;;
8927;SDS011;4499;48.304;11.902;2022-09-16T08:44:26;10.60;;;8.70;;
8927;SDS011;4499;48.304;11.902;2022-09-16T08:47:06;12.47;;;9.20;;
8927;SDS011;4499;48.304;11.902;2022-09-16T08:49:42;10.83;;;8.63;;
8927;SDS011;4499;48.304;11.902;2022-09-16T08:52:13;10.60;;;8.97;;
8927;SDS011;4499;48.304;11.902;2022-09-16T08:54:51;11.83;;;8.77;;
8927;SDS011;4499;48.304;11.902;2022-09-16T08:57:23;11.37;;;9.00;;
8927;SDS011;4499;48.304;11.902;2022-09-16T08:59:54;12.07;;;9.17;;
8927;SDS011;4499;48.304;11.902;2022-09-16T09:02:31;12.87;;;8.87;;
8927;SDS011;4499;48.304;11.902;2022-09-16T09:05:10;11.83;;;9.00;;
8927;SDS011;4499;48.304;11.902;2022-09-16T09:07:46;13.47;;;9.50;;
8927;SDS011;4499;48.304;11.902;2022-09-16T09:10:24;15.87;;;9.47;;
8927;SDS011;4499;48.304;11.902;2022-09-16T09:12:58;11.03;;;9.93;;
8927;SDS011;4499;48.304;11.902;2022-09-16T09:15:38;13.73;;;9.50;;
8927;SDS011;4499;48.304;11.902;2022-09-16T09:18:16;21.77;;;15.67;;
8927;SDS011;4499;48.304;11.902;2022-09-16T09:20:54;13.77;;;10.50;;
8927;SDS011;4499;48.304;11.902;2022-09-16T09:23:33;11.80;;;9.93;;
8927;SDS011;4499;48.304;11.902;2022-09-16T09:26:12;11.07;;;9.47;;
8927;SDS011;4499;48.304;11.902;2022-09-16T09:28:52;11.67;;;9.20;;
8927;SDS011;4499;48.304;11.902;2022-09-16T09:31:34;12.40;;;9.67;;
8927;SDS011;4499;48.304;11.902;2022-09-16T09:34:12;12.20;;;9.77;;
8927;SDS011;4499;48.304;11.902;2022-09-16T09:36:52;11.43;;;10.03;;
8927;SDS011;4499;48.304;11.902;2022-09-16T09:39:39;13.30;;;10.53;;
8927;SDS011;4499;48.304;11.902;2022-09-16T09:42:19;16.77;;;11.97;;
8927;SDS011;4499;48.304;11.902;2022-09-16T09:44:54;17.43;;;12.97;;
8927;SDS011;4499;48.304;11.902;2022-09-16T09:47:29;16.43;;;13.90;;
8927;SDS011;4499;48.304;11.902;2022-09-16T09:50:11;15.43;;;13.83;;
8927;SDS011;4499;48.304;11.902;2022-09-16T09:52:45;18.20;;;14.40;;
8927;SDS011;4499;48.304;11.902;2022-09-16T09:55:17;20.00;;;15.97;;
8927;SDS011;4499;48.304;11.902;2022-09-16T09:57:54;21.67;;;15.07;;
8927;SDS011;4499;48.304;11.902;2022-09-16T10:00:35;16.33;;;13.93;;
8927;SDS011;4499;48.304;11.902;2022-09-16T10:03:04;17.83;;;14.73;;
8927;SDS011;4499;48.304;11.902;2022-09-16T10:05:40;18.93;;;15.33;;
8927;SDS011;4499;48.304;11.902;2022-09-16T10:08:16;17.67;;;13.43;;
8927;SDS011;4499;48.304;11.902;2022-09-16T10:10:49;16.53;;;13.13;;
8927;SDS011;4499;48.304;11.902;2022-09-16T10:13:20;14.63;;;12.80;;
8927;SDS011;4499;48.304;11.902;2022-09-16T10:15:49;16.63;;;14.07;;
8927;SDS011;4499;48.304;11.902;2022-09-16T10:18:22;14.83;;;12.83;;
8927;SDS011;4499;48.304;11.902;2022-09-16T10:20:58;16.67;;;12.57;;
8927;SDS011;4499;48.304;11.902;2022-09-16T10:23:30;14.67;;;12.73;;
8927;SDS011;4499;48.304;11.902;2022-09-16T10:26:03;14.00;;;12.33;;
8927;SDS011;4499;48.304;11.902;2022-09-16T10:28:54;14.53;;;11.97;;
8927;SDS011;4499;48.304;11.902;2022-09-16T10:31:24;12.83;;;11.50;;
8927;SDS011;4499;48.304;11.902;2022-09-16T10:33:59;15.43;;;11.93;;
8927;SDS011;4499;48.304;11.902;2022-09-16T10:36:32;13.93;;;12.53;;
8927;SDS011;4499;48.304;11.902;2022-09-16T10:39:02;15.87;;;12.20;;
8927;SDS011;4499;48.304;11.902;2022-09-16T10:41:32;12.30;;;9.47;;
8927;SDS011;4499;48.304;11.902;2022-09-16T10:44:13;10.47;;;7.67;;
8927;SDS011;4499;48.304;11.902;2022-09-16T10:46:49;8.27;;;6.13;;
8927;SDS011;4499;48.304;11.902;2022-09-16T10:49:19;7.43;;;6.37;;
8927;SDS011;4499;48.304;11.902;2022-09-16T10:51:52;9.03;;;6.00;;
8927;SDS011;4499;48.304;11.902;2022-09-16T10:54:24;10.23;;;6.70;;
8927;SDS011;4499;48.304;11.902;2022-09-16T10:56:53;9.40;;;5.97;;
8927;SDS011;4499;48.304;11.902;2022-09-16T10:59:21;10.77;;;6.17;;
8927;SDS011;4499;48.304;11.902;2022-09-16T11:01:51;8.60;;;5.97;;
8927;SDS011;4499;48.304;11.902;2022-09-16T11:04:30;10.93;;;6.60;;
8927;SDS011;4499;48.304;11.902;2022-09-16T11:07:25;9.27;;;6.53;;
8927;SDS011;4499;48.304;11.902;2022-09-16T11:10:03;9.80;;;7.20;;
8927;SDS011;4499;48.304;11.902;2022-09-16T11:12:49;10.90;;;7.43;;
8927;SDS011;4499;48.304;11.902;2022-09-16T11:15:40;12.27;;;7.80;;
8927;SDS011;4499;48.304;11.902;2022-09-16T11:18:23;11.40;;;8.10;;
8927;SDS011;4499;48.304;11.902;2022-09-16T11:21:06;10.53;;;7.93;;
8927;SDS011;4499;48.304;11.902;2022-09-16T11:23:52;10.23;;;8.27;;
8927;SDS011;4499;48.304;11.902;2022-09-16T11:26:36;11.77;;;7.87;;
8927;SDS011;4499;48.304;11.902;2022-09-16T11:29:16;6.83;;;5.20;;
8927;SDS011;4499;48.304;11.902;2022-09-16T11:31:55;6.03;;;3.80;;
8927;SDS011;4499;48.304;11.902;2022-09-16T11:34:39;6.87;;;4.10;;
8927;SDS011;4499;48.304;11.902;2022-09-16T11:37:20;6.07;;;3.80;;
8927;SDS011;4499;48.304;11.902;2022-09-16T11:39:59;7.20;;;4.20;;
8927;SDS011;4499;48.304;11.902;2022-09-16T11:42:46;5.57;;;4.40;;
8927;SDS011;4499;48.304;11.902;2022-09-16T11:45:27;10.53;;;5.50;;
8927;SDS011;4499;48.304;11.902;2022-09-16T11:48:14;7.37;;;5.30;;
8927;SDS011;4499;48.304;11.902;2022-09-16T11:50:56;8.40;;;5.77;;
8927;SDS011;4499;48.304;11.902;2022-09-16T11:53:46;8.37;;;6.43;;
8927;SDS011;4499;48.304;11.902;2022-09-16T11:56:30;6.77;;;5.70;;
8927;SDS011;4499;48.304;11.902;2022-09-16T11:59:08;10.33;;;6.70;;
8927;SDS011;4499;48.304;11.902;2022-09-16T12:01:42;9.73;;;6.63;;
8927;SDS011;4499;48.304;11.902;2022-09-16T12:04:16;10.10;;;6.17;;
8927;SDS011;4499;48.304;11.902;2022-09-16T12:06:49;11.57;;;5.90;;
8927;SDS011;4499;48.304;11.902;2022-09-16T12:09:28;10.27;;;6.40;;
8927;SDS011;4499;48.304;11.902;2022-09-16T12:12:07;9.43;;;6.43;;
8927;SDS011;4499;48.304;11.902;2022-09-16T12:14:40;11.30;;;7.03;;
8927;SDS011;4499;48.304;11.902;2022-09-16T12:17:12;8.40;;;6.80;;
8927;SDS011;4499;48.304;11.902;2022-09-16T12:19:45;9.63;;;7.60;;
8927;SDS011;4499;48.304;11.902;2022-09-16T12:22:19;10.20;;;7.53;;
8927;SDS011;4499;48.304;11.902;2022-09-16T12:24:53;9.90;;;7.20;;
8927;SDS011;4499;48.304;11.902;2022-09-16T12:27:34;8.27;;;6.67;;
8927;SDS011;4499;48.304;11.902;2022-09-16T12:30:12;9.57;;;7.40;;
8927;SDS011;4499;48.304;11.902;2022-09-16T12:32:53;11.23;;;6.53;;
8927;SDS011;4499;48.304;11.902;2022-09-16T12:35:27;10.00;;;6.77;;
8927;SDS011;4499;48.304;11.902;2022-09-16T12:37:58;8.57;;;6.77;;
8927;SDS011;4499;48.304;11.902;2022-09-16T12:40:27;8.20;;;6.80;;
8927;SDS011;4499;48.304;11.902;2022-09-16T12:43:10;9.17;;;6.50;;
8927;SDS011;4499;48.304;11.902;2022-09-16T12:46:01;9.33;;;6.77;;
8927;SDS011;4499;48.304;11.902;2022-09-16T12:48:52;9.33;;;7.20;;
8927;SDS011;4499;48.304;11.902;2022-09-16T12:51:40;8.77;;;7.20;;
8927;SDS011;4499;48.304;11.902;2022-09-16T12:57:38;8.33;;;7.33;;
8927;SDS011;4499;48.304;11.902;2022-09-16T13:00:16;10.07;;;7.83;;
8927;SDS011;4499;48.304;11.902;2022-09-16T13:02:48;11.97;;;8.20;;
8927;SDS011;4499;48.304;11.902;2022-09-16T13:05:21;10.70;;;7.27;;
8927;SDS011;4499;48.304;11.902;2022-09-16T13:08:03;12.47;;;7.93;;
8927;SDS011;4499;48.304;11.902;2022-09-16T13:10:34;8.50;;;5.33;;
8927;SDS011;4499;48.304;11.902;2022-09-16T13:13:31;7.80;;;5.87;;
8927;SDS011;4499;48.304;11.902;2022-09-16T13:16:04;9.67;;;6.17;;
8927;SDS011;4499;48.304;11.902;2022-09-16T13:18:43;8.80;;;6.50;;
8927;SDS011;4499;48.304;11.902;2022-09-16T13:21:19;9.20;;;5.53;;
8927;SDS011;4499;48.304;11.902;2022-09-16T13:23:52;9.53;;;4.93;;
8927;SDS011;4499;48.304;11.902;2022-09-16T13:26:37;5.73;;;4.50;;
8927;SDS011;4499;48.304;11.902;2022-09-16T13:29:29;7.90;;;4.33;;
8927;SDS011;4499;48.304;11.902;2022-09-16T13:32:26;7.53;;;4.37;;
8927;SDS011;4499;48.304;11.902;2022-09-16T13:35:04;6.63;;;4.30;;
8927;SDS011;4499;48.304;11.902;2022-09-16T13:37:48;5.80;;;4.60;;
8927;SDS011;4499;48.304;11.902;2022-09-16T13:40:21;4.87;;;3.80;;
8927;SDS011;4499;48.304;11.902;2022-09-16T13:43:02;6.60;;;3.70;;
